This is the latest recevied weather packets stored in our database for station/object DB0OHA-10. If no packets are shown the sender has not sent any weather packets the latest 1 day(s).
| Time | Temp. | Humidity | Pressure | Rain* | Wind** | Luminosity | Snow |
|---|---|---|---|---|---|---|---|
| 1836274121 | 15.56° C | 6% | 1017.5 hPa | 0 mm | 2.68 m/s, 32° | 0 W/m² | - |
| 1836273971 | 15.56° C | 9% | 1017.5 hPa | 0 mm | 3.13 m/s, 44° | 0 W/m² | - |
| 1778004911 | 13.33° C | 1% | 1005.6 hPa | 1.27 mm | 0.45 m/s, 355° | 5 W/m² | - |
| 1778004020 | 13.33° C | 1% | 1005.8 hPa | 1.52 mm | 0 m/s | 7 W/m² | - |
| 1778003111 | 13.33° C | 1% | 1005.6 hPa | 2.03 mm | 0.45 m/s, 34° | 11 W/m² | - |
| 1778002219 | 13.89° C | 1% | 1005.6 hPa | 2.03 mm | 0.45 m/s, 5° | 14 W/m² | - |
| 1778002211 | 13.89° C | 1% | 1005.6 hPa | 2.03 mm | 0.45 m/s, 5° | 14 W/m² | - |
| 1778001311 | 13.89° C | 1% | 1005.9 hPa | 1.52 mm | 0 m/s | 21 W/m² | - |
| 1778000411 | 14.44° C | 1% | 1006 hPa | 1.02 mm | 0.45 m/s, 53° | 25 W/m² | - |
| 1777999511 | 15° C | 1% | 1005.9 hPa | 0.25 mm | 0.45 m/s, 57° | 23 W/m² | - |
| 1777998611 | 15.56° C | 1% | 1006.3 hPa | 0 mm | 0.89 m/s, 56° | 28 W/m² | - |
| 1777997711 | 16.11° C | 1% | 1006.2 hPa | 0 mm | 0.45 m/s, 56° | 44 W/m² | - |
| 1777996811 | 16.11° C | 1% | 1006.2 hPa | 0 mm | 0.45 m/s, 54° | 62 W/m² | - |
| 1777995911 | 16.67° C | 1% | 1006.2 hPa | 0 mm | 0.89 m/s, 44° | 142 W/m² | - |
| 1777995011 | 16.67° C | 1% | 1006.4 hPa | 0 mm | 0.89 m/s, 36° | 172 W/m² | - |
| 1777994111 | 16.11° C | 1% | 1006.2 hPa | 0 mm | 1.34 m/s, 65° | 192 W/m² | - |
| 1777993211 | 16.67° C | 1% | 1006.3 hPa | 0 mm | 1.34 m/s, 55° | 130 W/m² | - |
| 1777992311 | 16.67° C | 1% | 1006.6 hPa | 0 mm | 1.34 m/s, 38° | 137 W/m² | - |
| 1777991411 | 17.22° C | 6% | 1006.7 hPa | 0 mm | 1.34 m/s, 31° | 132 W/m² | - |
| 1777990511 | 17.78° C | 1% | 1006.6 hPa | 0 mm | 0.89 m/s, 32° | 172 W/m² | - |
| 1777989611 | 17.78° C | 10% | 1006.8 hPa | 0 mm | 0.45 m/s, 336° | 153 W/m² | - |
| 1777988711 | 17.78° C | 27% | 1006.8 hPa | 0 mm | 0.89 m/s, 284° | 107 W/m² | - |
| 1777987811 | 18.33° C | 39% | 1006.8 hPa | 0 mm | 0.89 m/s, 284° | 149 W/m² | - |
| 1777986911 | 18.89° C | 40% | 1007 hPa | 0 mm | 0 m/s | 244 W/m² | - |
| 1777986011 | 19.44° C | 41% | 1007.1 hPa | 0 mm | 0 m/s | 621 W/m² | - |
* Rain latest hour (hover to see other rain measurements)
** Current wind speed in m/s (hover to see current wind gust speed)